sensor_id;sensor_type;location;lat;lon;timestamp;pressure;altitude;pressure_sealevel;temperature;humidity
18850;BME280;4989;48.772;9.154;2023-02-18T00:00:05;98895.25;;;12.51;90.19
18850;BME280;4989;48.772;9.154;2023-02-18T00:05:07;98892.91;;;12.53;90.92
18850;BME280;4989;48.772;9.154;2023-02-18T00:10:14;98892.91;;;12.53;90.70
18850;BME280;4989;48.772;9.154;2023-02-18T00:15:16;98900.59;;;12.58;90.29
18850;BME280;4989;48.772;9.154;2023-02-18T00:20:19;98902.97;;;12.56;89.99
18850;BME280;4989;48.772;9.154;2023-02-18T00:25:22;98887.53;;;12.46;90.90
18850;BME280;4989;48.772;9.154;2023-02-18T00:30:27;98903.19;;;12.42;91.29
18850;BME280;4989;48.772;9.154;2023-02-18T00:35:30;98903.94;;;12.42;90.60
18850;BME280;4989;48.772;9.154;2023-02-18T00:40:35;98897.97;;;12.51;90.44
18850;BME280;4989;48.772;9.154;2023-02-18T00:45:38;98878.22;;;12.43;90.35
18850;BME280;4989;48.772;9.154;2023-02-18T00:50:40;98869.75;;;12.37;90.53
18850;BME280;4989;48.772;9.154;2023-02-18T00:55:44;98863.50;;;12.37;90.70
18850;BME280;4989;48.772;9.154;2023-02-18T01:00:49;98869.75;;;12.37;90.23
18850;BME280;4989;48.772;9.154;2023-02-18T01:05:52;98864.38;;;12.30;90.68
18850;BME280;4989;48.772;9.154;2023-02-18T01:10:57;98860.06;;;12.33;90.15
18850;BME280;4989;48.772;9.154;2023-02-18T01:16:00;98845.72;;;12.29;90.16
18850;BME280;4989;48.772;9.154;2023-02-18T01:21:05;98854.34;;;12.24;90.49
18850;BME280;4989;48.772;9.154;2023-02-18T01:26:10;98854.41;;;12.20;91.11
18850;BME280;4989;48.772;9.154;2023-02-18T01:31:15;98851.31;;;12.18;91.12
18850;BME280;4989;48.772;9.154;2023-02-18T01:36:18;98841.94;;;12.19;91.00
18850;BME280;4989;48.772;9.154;2023-02-18T01:41:21;98855.13;;;12.24;90.46
18850;BME280;4989;48.772;9.154;2023-02-18T01:46:23;98852.03;;;12.22;90.27
18850;BME280;4989;48.772;9.154;2023-02-18T01:51:30;98852.94;;;12.12;90.95
18850;BME280;4989;48.772;9.154;2023-02-18T01:56:50;98845.31;;;12.00;91.55
18850;BME280;4989;48.772;9.154;2023-02-18T02:01:55;98835.88;;;12.08;90.95
18850;BME280;4989;48.772;9.154;2023-02-18T02:06:58;98848.06;;;12.00;90.90
18850;BME280;4989;48.772;9.154;2023-02-18T02:34:33;98843.78;;;11.99;90.05
18850;BME280;4989;48.772;9.154;2023-02-18T02:50:07;98819.09;;;11.79;91.60
18850;BME280;4989;48.772;9.154;2023-02-18T02:55:14;98814.09;;;11.77;91.68
18850;BME280;4989;48.772;9.154;2023-02-18T03:11:28;98809.78;;;11.76;91.23
18850;BME280;4989;48.772;9.154;2023-02-18T03:17:02;98827.69;;;11.77;90.89
18850;BME280;4989;48.772;9.154;2023-02-18T03:22:12;98819.16;;;11.75;90.92
18850;BME280;4989;48.772;9.154;2023-02-18T03:27:31;98792.84;;;11.65;91.85
18850;BME280;4989;48.772;9.154;2023-02-18T03:32:34;98801.06;;;11.58;92.97
18850;BME280;4989;48.772;9.154;2023-02-18T03:37:58;98793.34;;;11.53;93.63
18850;BME280;4989;48.772;9.154;2023-02-18T03:43:04;98787.63;;;11.43;94.68
18850;BME280;4989;48.772;9.154;2023-02-18T03:48:06;98787.72;;;11.36;95.66
18850;BME280;4989;48.772;9.154;2023-02-18T03:53:09;98794.03;;;11.30;96.46
18850;BME280;4989;48.772;9.154;2023-02-18T03:58:11;98799.19;;;11.20;97.36
18850;BME280;4989;48.772;9.154;2023-02-18T04:03:14;98796.78;;;11.26;97.40
18850;BME280;4989;48.772;9.154;2023-02-18T04:08:16;98800.94;;;11.34;96.88
18850;BME280;4989;48.772;9.154;2023-02-18T04:13:19;98804.00;;;11.40;96.18
18850;BME280;4989;48.772;9.154;2023-02-18T04:18:22;98788.41;;;11.44;95.60
18850;BME280;4989;48.772;9.154;2023-02-18T04:23:25;98793.94;;;11.37;96.06
18850;BME280;4989;48.772;9.154;2023-02-18T04:28:27;98787.84;;;11.26;96.88
18850;BME280;4989;48.772;9.154;2023-02-18T04:33:30;98775.53;;;11.14;98.09
18850;BME280;4989;48.772;9.154;2023-02-18T04:38:32;98784.88;;;11.13;97.82
18850;BME280;4989;48.772;9.154;2023-02-18T04:43:35;98778.59;;;11.16;97.65
18850;BME280;4989;48.772;9.154;2023-02-18T04:48:38;98781.75;;;11.14;97.42
18850;BME280;4989;48.772;9.154;2023-02-18T04:53:40;98784.44;;;11.18;96.95
18850;BME280;4989;48.772;9.154;2023-02-18T04:58:42;98782.09;;;11.16;97.22
18850;BME280;4989;48.772;9.154;2023-02-18T05:03:45;98794.13;;;11.19;96.72
18850;BME280;4989;48.772;9.154;2023-02-18T05:08:47;98782.53;;;11.15;97.15
18850;BME280;4989;48.772;9.154;2023-02-18T05:13:50;98786.38;;;11.17;96.60
18850;BME280;4989;48.772;9.154;2023-02-18T05:18:52;98791.91;;;11.07;97.37
18850;BME280;4989;48.772;9.154;2023-02-18T05:23:55;98791.28;;;10.95;98.32
18850;BME280;4989;48.772;9.154;2023-02-18T05:28:58;98784.72;;;10.89;99.58
18850;BME280;4989;48.772;9.154;2023-02-18T05:34:00;98783.63;;;10.80;100.00
18850;BME280;4989;48.772;9.154;2023-02-18T05:39:03;98786.09;;;10.67;100.00
18850;BME280;4989;48.772;9.154;2023-02-18T05:44:05;98784.09;;;10.71;100.00
18850;BME280;4989;48.772;9.154;2023-02-18T05:49:28;98776.31;;;10.73;100.00
18850;BME280;4989;48.772;9.154;2023-02-18T05:54:31;98776.63;;;10.82;100.00
18850;BME280;4989;48.772;9.154;2023-02-18T05:59:33;98764.88;;;10.92;100.00
18850;BME280;4989;48.772;9.154;2023-02-18T06:04:36;98767.16;;;10.97;100.00
18850;BME280;4989;48.772;9.154;2023-02-18T06:09:38;98766.41;;;10.93;100.00
18850;BME280;4989;48.772;9.154;2023-02-18T06:14:41;98771.94;;;10.86;100.00
18850;BME280;4989;48.772;9.154;2023-02-18T06:19:44;98781.13;;;10.99;100.00
18850;BME280;4989;48.772;9.154;2023-02-18T06:24:47;98778.78;;;10.98;100.00
18850;BME280;4989;48.772;9.154;2023-02-18T06:29:49;98775.19;;;10.70;100.00
18850;BME280;4989;48.772;9.154;2023-02-18T06:34:52;98783.56;;;10.90;100.00
18850;BME280;4989;48.772;9.154;2023-02-18T06:39:54;98769.53;;;10.92;100.00
18850;BME280;4989;48.772;9.154;2023-02-18T06:44:57;98780.59;;;11.12;100.00
18850;BME280;4989;48.772;9.154;2023-02-18T06:50:00;98780.47;;;11.26;100.00
18850;BME280;4989;48.772;9.154;2023-02-18T06:55:03;98782.28;;;11.36;100.00
18850;BME280;4989;48.772;9.154;2023-02-18T07:00:07;98778.41;;;11.34;100.00
18850;BME280;4989;48.772;9.154;2023-02-18T07:05:09;98783.81;;;11.37;99.27
18850;BME280;4989;48.772;9.154;2023-02-18T07:10:12;98781.38;;;11.46;98.40
18850;BME280;4989;48.772;9.154;2023-02-18T07:15:14;98772.81;;;11.48;97.92
18850;BME280;4989;48.772;9.154;2023-02-18T07:20:18;98770.84;;;11.49;98.00
18850;BME280;4989;48.772;9.154;2023-02-18T07:25:22;98775.09;;;11.50;97.54
18850;BME280;4989;48.772;9.154;2023-02-18T07:30:25;98768.41;;;11.58;97.30
18850;BME280;4989;48.772;9.154;2023-02-18T07:35:28;98771.06;;;11.61;96.76
18850;BME280;4989;48.772;9.154;2023-02-18T07:40:30;98755.94;;;11.60;96.49
18850;BME280;4989;48.772;9.154;2023-02-18T07:45:33;98753.09;;;11.67;95.92
18850;BME280;4989;48.772;9.154;2023-02-18T07:50:42;98754.19;;;11.74;95.42
18850;BME280;4989;48.772;9.154;2023-02-18T07:55:45;98741.25;;;11.81;95.24
18850;BME280;4989;48.772;9.154;2023-02-18T08:00:51;98743.56;;;11.86;94.93
18850;BME280;4989;48.772;9.154;2023-02-18T08:05:55;98746.63;;;11.88;94.25
18850;BME280;4989;48.772;9.154;2023-02-18T08:11:00;98753.97;;;11.91;94.11
18850;BME280;4989;48.772;9.154;2023-02-18T08:16:20;98754.72;;;11.96;93.31
18850;BME280;4989;48.772;9.154;2023-02-18T08:21:24;98758.84;;;12.04;92.64
18850;BME280;4989;48.772;9.154;2023-02-18T08:26:27;98757.31;;;12.30;90.21
18850;BME280;4989;48.772;9.154;2023-02-18T08:31:30;98756.56;;;12.53;86.84
18850;BME280;4989;48.772;9.154;2023-02-18T08:36:34;98752.25;;;12.75;84.81
18850;BME280;4989;48.772;9.154;2023-02-18T08:41:37;98741.94;;;12.87;83.27
18850;BME280;4989;48.772;9.154;2023-02-18T08:46:39;98744.91;;;12.72;82.95
18850;BME280;4989;48.772;9.154;2023-02-18T08:51:42;98748.78;;;12.95;81.75
18850;BME280;4989;48.772;9.154;2023-02-18T08:56:44;98747.75;;;13.09;80.70
18850;BME280;4989;48.772;9.154;2023-02-18T09:01:47;98738.31;;;13.13;79.62
18850;BME280;4989;48.772;9.154;2023-02-18T09:06:50;98736.06;;;13.08;80.04
18850;BME280;4989;48.772;9.154;2023-02-18T09:11:53;98730.13;;;13.13;79.38
18850;BME280;4989;48.772;9.154;2023-02-18T09:16:56;98725.06;;;13.51;77.64
18850;BME280;4989;48.772;9.154;2023-02-18T09:21:59;98722.38;;;13.32;77.58
18850;BME280;4989;48.772;9.154;2023-02-18T09:27:03;98715.50;;;13.43;76.84
18850;BME280;4989;48.772;9.154;2023-02-18T09:32:07;98706.22;;;13.57;76.08
18850;BME280;4989;48.772;9.154;2023-02-18T09:37:10;98704.38;;;13.70;75.79
18850;BME280;4989;48.772;9.154;2023-02-18T09:42:15;98704.50;;;13.47;75.69
18850;BME280;4989;48.772;9.154;2023-02-18T09:52:33;98688.81;;;13.67;77.03
18850;BME280;4989;48.772;9.154;2023-02-18T09:57:41;98695.50;;;13.66;76.83
18850;BME280;4989;48.772;9.154;2023-02-18T10:08:49;98701.81;;;13.63;75.53
18850;BME280;4989;48.772;9.154;2023-02-18T10:13:53;98701.84;;;13.96;74.18
18850;BME280;4989;48.772;9.154;2023-02-18T10:19:03;98688.44;;;13.85;75.05
18850;BME280;4989;48.772;9.154;2023-02-18T10:29:17;98689.19;;;14.51;71.31
18850;BME280;4989;48.772;9.154;2023-02-18T10:34:52;98705.44;;;14.26;72.23
18850;BME280;4989;48.772;9.154;2023-02-18T10:40:12;98701.66;;;14.36;71.71
18850;BME280;4989;48.772;9.154;2023-02-18T10:50:37;98687.31;;;14.64;69.37
18850;BME280;4989;48.772;9.154;2023-02-18T10:55:43;98681.34;;;14.53;69.78
18850;BME280;4989;48.772;9.154;2023-02-18T11:00:46;98684.56;;;14.48;69.32
18850;BME280;4989;48.772;9.154;2023-02-18T11:05:54;98678.84;;;14.59;69.42
18850;BME280;4989;48.772;9.154;2023-02-18T11:10:57;98671.25;;;14.79;69.52
18850;BME280;4989;48.772;9.154;2023-02-18T11:16:12;98654.94;;;14.76;68.41
18850;BME280;4989;48.772;9.154;2023-02-18T11:21:36;98646.88;;;15.52;65.88
18850;BME280;4989;48.772;9.154;2023-02-18T11:26:39;98652.31;;;15.27;65.33
18850;BME280;4989;48.772;9.154;2023-02-18T11:31:46;98629.72;;;16.47;61.70
18850;BME280;4989;48.772;9.154;2023-02-18T11:36:49;98637.72;;;16.76;59.80
18850;BME280;4989;48.772;9.154;2023-02-18T11:42:04;98638.84;;;16.66;59.99
18850;BME280;4989;48.772;9.154;2023-02-18T11:52:25;98627.22;;;17.06;58.40
18850;BME280;4989;48.772;9.154;2023-02-18T11:57:28;98618.84;;;16.78;57.95
18850;BME280;4989;48.772;9.154;2023-02-18T12:02:37;98611.13;;;16.73;58.72
18850;BME280;4989;48.772;9.154;2023-02-18T12:13:37;98610.84;;;18.33;54.34
18850;BME280;4989;48.772;9.154;2023-02-18T12:36:02;98606.13;;;17.65;54.64
18850;BME280;4989;48.772;9.154;2023-02-18T12:41:40;98601.84;;;16.92;56.07
18850;BME280;4989;48.772;9.154;2023-02-18T12:57:35;98587.13;;;16.42;57.26
18850;BME280;4989;48.772;9.154;2023-02-18T13:13:15;98595.44;;;15.82;58.61
18850;BME280;4989;48.772;9.154;2023-02-18T13:18:46;98597.09;;;15.41;59.42
18850;BME280;4989;48.772;9.154;2023-02-18T13:23:58;98587.22;;;15.56;59.46
18850;BME280;4989;48.772;9.154;2023-02-18T13:34:54;98560.19;;;15.33;59.43
18850;BME280;4989;48.772;9.154;2023-02-18T13:40:02;98564.78;;;15.36;59.42
18850;BME280;4989;48.772;9.154;2023-02-18T13:50:31;98563.69;;;15.46;59.40
18850;BME280;4989;48.772;9.154;2023-02-18T14:01:43;98548.09;;;16.03;58.07
18850;BME280;4989;48.772;9.154;2023-02-18T14:12:39;98526.53;;;15.45;59.31
18850;BME280;4989;48.772;9.154;2023-02-18T14:17:43;98536.84;;;15.16;60.40
18850;BME280;4989;48.772;9.154;2023-02-18T14:22:51;98515.06;;;15.12;60.59
18850;BME280;4989;48.772;9.154;2023-02-18T14:27:53;98520.22;;;15.23;60.23
18850;BME280;4989;48.772;9.154;2023-02-18T14:32:59;98509.47;;;15.16;60.66
18850;BME280;4989;48.772;9.154;2023-02-18T14:38:17;98515.28;;;14.92;61.04
18850;BME280;4989;48.772;9.154;2023-02-18T14:54:30;98512.75;;;14.72;62.25
18850;BME280;4989;48.772;9.154;2023-02-18T14:59:42;98531.25;;;14.68;62.57
18850;BME280;4989;48.772;9.154;2023-02-18T15:04:45;98529.28;;;14.69;62.77
18850;BME280;4989;48.772;9.154;2023-02-18T15:09:53;98516.25;;;14.73;62.76
18850;BME280;4989;48.772;9.154;2023-02-18T15:15:02;98521.59;;;14.76;63.21
18850;BME280;4989;48.772;9.154;2023-02-18T15:20:05;98526.41;;;14.59;63.50
18850;BME280;4989;48.772;9.154;2023-02-18T15:25:12;98528.03;;;14.57;63.79
18850;BME280;4989;48.772;9.154;2023-02-18T15:30:29;98532.91;;;14.49;64.06
18850;BME280;4989;48.772;9.154;2023-02-18T15:35:32;98532.00;;;14.69;63.96
18850;BME280;4989;48.772;9.154;2023-02-18T15:40:37;98536.81;;;14.64;64.23
18850;BME280;4989;48.772;9.154;2023-02-18T15:45:44;98545.22;;;14.57;64.71
18850;BME280;4989;48.772;9.154;2023-02-18T15:50:56;98521.28;;;14.74;64.32
18850;BME280;4989;48.772;9.154;2023-02-18T15:56:38;98528.81;;;14.57;64.38
18850;BME280;4989;48.772;9.154;2023-02-18T16:01:41;98514.16;;;14.22;66.05
18850;BME280;4989;48.772;9.154;2023-02-18T16:06:50;98502.63;;;14.14;66.43
18850;BME280;4989;48.772;9.154;2023-02-18T16:11:58;98521.72;;;14.02;67.76
18850;BME280;4989;48.772;9.154;2023-02-18T16:17:08;98506.47;;;13.88;68.14
18850;BME280;4989;48.772;9.154;2023-02-18T16:22:50;98507.22;;;13.88;68.40
18850;BME280;4989;48.772;9.154;2023-02-18T16:28:01;98500.66;;;13.86;68.88
18850;BME280;4989;48.772;9.154;2023-02-18T16:33:05;98492.22;;;13.80;69.03
18850;BME280;4989;48.772;9.154;2023-02-18T16:38:10;98485.50;;;13.68;69.70
18850;BME280;4989;48.772;9.154;2023-02-18T16:43:19;98491.13;;;13.61;69.74
18850;BME280;4989;48.772;9.154;2023-02-18T16:48:32;98490.13;;;13.55;70.32
18850;BME280;4989;48.772;9.154;2023-02-18T16:53:35;98486.38;;;13.49;70.34
18850;BME280;4989;48.772;9.154;2023-02-18T16:58:37;98502.75;;;13.49;70.57
18850;BME280;4989;48.772;9.154;2023-02-18T17:03:40;98502.69;;;13.52;70.68
18850;BME280;4989;48.772;9.154;2023-02-18T17:08:42;98511.34;;;13.64;70.46
18850;BME280;4989;48.772;9.154;2023-02-18T17:13:46;98524.75;;;13.58;70.60
18850;BME280;4989;48.772;9.154;2023-02-18T17:18:49;98513.53;;;13.56;70.91
18850;BME280;4989;48.772;9.154;2023-02-18T17:23:52;98522.88;;;13.55;71.05
18850;BME280;4989;48.772;9.154;2023-02-18T17:28:56;98533.16;;;13.51;71.46
18850;BME280;4989;48.772;9.154;2023-02-18T17:34:05;98543.38;;;13.63;71.14
18850;BME280;4989;48.772;9.154;2023-02-18T17:39:12;98552.53;;;13.57;72.15
18850;BME280;4989;48.772;9.154;2023-02-18T17:44:21;98560.28;;;13.58;72.66
18850;BME280;4989;48.772;9.154;2023-02-18T17:49:23;98557.88;;;13.60;72.54
18850;BME280;4989;48.772;9.154;2023-02-18T17:54:26;98560.44;;;13.51;74.88
18850;BME280;4989;48.772;9.154;2023-02-18T17:59:29;98547.03;;;13.40;75.83
18850;BME280;4989;48.772;9.154;2023-02-18T18:04:32;98562.25;;;13.41;74.91
18850;BME280;4989;48.772;9.154;2023-02-18T18:09:34;98572.81;;;13.72;73.71
18850;BME280;4989;48.772;9.154;2023-02-18T18:14:37;98571.38;;;13.51;74.13
18850;BME280;4989;48.772;9.154;2023-02-18T18:19:39;98572.41;;;13.41;74.72
18850;BME280;4989;48.772;9.154;2023-02-18T18:24:42;98578.19;;;13.26;75.51
18850;BME280;4989;48.772;9.154;2023-02-18T18:29:44;98583.81;;;13.36;75.28
18850;BME280;4989;48.772;9.154;2023-02-18T18:34:46;98588.94;;;13.34;75.65
18850;BME280;4989;48.772;9.154;2023-02-18T18:39:50;98590.97;;;13.29;75.60
18850;BME280;4989;48.772;9.154;2023-02-18T18:44:52;98607.97;;;13.37;75.19
18850;BME280;4989;48.772;9.154;2023-02-18T18:49:54;98609.78;;;13.60;74.94
18850;BME280;4989;48.772;9.154;2023-02-18T18:54:56;98600.81;;;13.76;74.33
18850;BME280;4989;48.772;9.154;2023-02-18T18:59:58;98611.81;;;13.40;75.64
18850;BME280;4989;48.772;9.154;2023-02-18T19:05:02;98622.41;;;13.38;75.92
18850;BME280;4989;48.772;9.154;2023-02-18T19:10:05;98609.59;;;13.35;75.77
18850;BME280;4989;48.772;9.154;2023-02-18T19:15:19;98609.34;;;13.45;75.74
18850;BME280;4989;48.772;9.154;2023-02-18T19:20:27;98612.19;;;13.74;74.88
18850;BME280;4989;48.772;9.154;2023-02-18T19:25:30;98619.00;;;13.66;74.33
18850;BME280;4989;48.772;9.154;2023-02-18T19:30:35;98623.63;;;13.53;75.18
18850;BME280;4989;48.772;9.154;2023-02-18T19:35:39;98627.69;;;13.45;75.74
18850;BME280;4989;48.772;9.154;2023-02-18T19:40:44;98633.59;;;13.60;75.59
18850;BME280;4989;48.772;9.154;2023-02-18T19:45:46;98627.69;;;13.45;76.48
18850;BME280;4989;48.772;9.154;2023-02-18T19:50:48;98634.00;;;13.42;77.59
18850;BME280;4989;48.772;9.154;2023-02-18T19:56:02;98634.00;;;13.42;78.08
18850;BME280;4989;48.772;9.154;2023-02-18T20:01:15;98631.94;;;13.29;79.30
18850;BME280;4989;48.772;9.154;2023-02-18T20:06:19;98638.19;;;13.10;83.66
18850;BME280;4989;48.772;9.154;2023-02-18T20:11:21;98642.00;;;13.33;82.99
18850;BME280;4989;48.772;9.154;2023-02-18T20:16:23;98632.25;;;12.95;86.88
18850;BME280;4989;48.772;9.154;2023-02-18T20:21:26;98644.81;;;12.69;90.02
18850;BME280;4989;48.772;9.154;2023-02-18T20:26:29;98640.41;;;12.55;95.91
18850;BME280;4989;48.772;9.154;2023-02-18T20:31:32;98618.38;;;12.26;100.00
18850;BME280;4989;48.772;9.154;2023-02-18T20:36:35;98622.00;;;12.40;100.00
18850;BME280;4989;48.772;9.154;2023-02-18T20:41:38;98631.13;;;12.53;100.00
18850;BME280;4989;48.772;9.154;2023-02-18T20:46:42;98629.56;;;12.52;100.00
18850;BME280;4989;48.772;9.154;2023-02-18T20:51:44;98628.50;;;12.46;100.00
18850;BME280;4989;48.772;9.154;2023-02-18T20:56:48;98626.72;;;12.59;98.25
18850;BME280;4989;48.772;9.154;2023-02-18T21:01:52;98626.31;;;12.17;97.88
18850;BME280;4989;48.772;9.154;2023-02-18T21:06:54;98625.47;;;12.20;97.57
18850;BME280;4989;48.772;9.154;2023-02-18T21:11:57;98617.63;;;12.22;96.32
18850;BME280;4989;48.772;9.154;2023-02-18T21:17:00;98622.38;;;12.18;95.71
18850;BME280;4989;48.772;9.154;2023-02-18T21:22:04;98616.47;;;12.00;97.27
18850;BME280;4989;48.772;9.154;2023-02-18T21:27:07;98617.78;;;12.15;97.01
18850;BME280;4989;48.772;9.154;2023-02-18T21:32:09;98623.59;;;12.17;95.33
18850;BME280;4989;48.772;9.154;2023-02-18T21:37:12;98626.19;;;12.24;95.05
18850;BME280;4989;48.772;9.154;2023-02-18T21:42:15;98619.03;;;12.54;92.72
18850;BME280;4989;48.772;9.154;2023-02-18T21:47:17;98630.19;;;12.79;90.53
18850;BME280;4989;48.772;9.154;2023-02-18T21:52:20;98629.88;;;12.77;90.10
18850;BME280;4989;48.772;9.154;2023-02-18T21:57:23;98621.31;;;12.75;90.84
18850;BME280;4989;48.772;9.154;2023-02-18T22:02:28;98610.63;;;12.84;91.51
18850;BME280;4989;48.772;9.154;2023-02-18T22:07:33;98629.34;;;12.82;90.86
18850;BME280;4989;48.772;9.154;2023-02-18T22:12:36;98619.50;;;12.89;91.36
18850;BME280;4989;48.772;9.154;2023-02-18T22:17:39;98619.09;;;12.50;96.86
18850;BME280;4989;48.772;9.154;2023-02-18T22:22:42;98617.34;;;12.60;96.11
18850;BME280;4989;48.772;9.154;2023-02-18T22:27:44;98609.56;;;12.78;94.89
18850;BME280;4989;48.772;9.154;2023-02-18T22:32:47;98614.03;;;12.89;94.36
18850;BME280;4989;48.772;9.154;2023-02-18T22:37:50;98602.88;;;12.83;95.17
18850;BME280;4989;48.772;9.154;2023-02-18T22:42:53;98597.91;;;12.78;96.54
18850;BME280;4989;48.772;9.154;2023-02-18T22:47:56;98594.41;;;12.77;97.88
18850;BME280;4989;48.772;9.154;2023-02-18T22:52:59;98591.97;;;12.63;100.00
18850;BME280;4989;48.772;9.154;2023-02-18T22:58:01;98594.06;;;12.75;98.54
18850;BME280;4989;48.772;9.154;2023-02-18T23:03:04;98579.56;;;12.78;97.53
18850;BME280;4989;48.772;9.154;2023-02-18T23:08:06;98579.22;;;12.76;98.42
18850;BME280;4989;48.772;9.154;2023-02-18T23:13:09;98580.06;;;12.73;98.52
18850;BME280;4989;48.772;9.154;2023-02-18T23:18:11;98567.81;;;12.61;97.81
18850;BME280;4989;48.772;9.154;2023-02-18T23:23:16;98564.84;;;12.56;98.62
18850;BME280;4989;48.772;9.154;2023-02-18T23:28:19;98554.34;;;12.74;96.72
18850;BME280;4989;48.772;9.154;2023-02-18T23:33:21;98551.06;;;12.63;97.70
18850;BME280;4989;48.772;9.154;2023-02-18T23:38:24;98551.75;;;12.67;97.04
18850;BME280;4989;48.772;9.154;2023-02-18T23:43:29;98537.84;;;12.42;99.75
18850;BME280;4989;48.772;9.154;2023-02-18T23:48:36;98539.66;;;12.28;96.72
18850;BME280;4989;48.772;9.154;2023-02-18T23:53:40;98535.13;;;12.42;96.91
18850;BME280;4989;48.772;9.154;2023-02-18T23:58:45;98537.63;;;12.52;94.26
